Time;durP1;ratioP1;P1;durP2;ratioP2;P2;SDS_P1;SDS_P2;PMS_P1;PMS_P2;Temp;Humidity;BMP_temperature;BMP_pressure;BME280_temperature;BME280_humidity;BME280_pressure;Samples;Min_cycle;Max_cycle;Signal;HPM_P1;HPM_P2
2022/05/13 00:02:17;;;;;;;15.50;9.18;;;;;16.80;96599.00;;;;8366296;28;20228;-64
2022/05/13 00:11:37;;;;;;;17.77;9.13;;;;;16.80;96596.00;;;;8366118;28;20307;-64
2022/05/13 00:15:42;;;;;;;15.65;9.38;;;;;16.80;96595.00;;;;8366569;28;20310;-65
2022/05/13 00:20:18;;;;;;;16.33;9.10;;;;;16.80;96591.00;;;;8366824;28;20236;-65
2022/05/13 00:24:21;;;;;;;16.17;9.23;;;;;16.80;96587.00;;;;8365397;28;20569;-65
2022/05/13 00:28:24;;;;;;;14.32;8.85;;;;;16.80;96590.00;;;;8366844;28;20217;-64
2022/05/13 00:32:28;;;;;;;17.58;9.13;;;;;16.80;96594.00;;;;8365381;28;20642;-65
2022/05/13 00:36:32;;;;;;;15.85;9.38;;;;;16.80;96598.00;;;;8366180;28;20306;-65
2022/05/13 00:41:06;;;;;;;17.10;9.25;;;;;16.80;96597.00;;;;8364720;28;20240;-66
2022/05/13 00:45:13;;;;;;;20.88;9.93;;;;;16.90;96587.00;;;;8357431;28;20299;-66
2022/05/13 00:49:18;;;;;;;18.88;9.65;;;;;17.00;96586.00;;;;8365031;28;20220;-66
2022/05/13 00:53:23;;;;;;;21.17;9.73;;;;;17.00;96590.00;;;;8364579;28;20555;-66
2022/05/13 00:57:26;;;;;;;21.50;10.13;;;;;17.00;96578.00;;;;8365596;28;20223;-65
2022/05/13 01:01:30;;;;;;;13.90;8.98;;;;;17.00;96584.00;;;;8363956;28;20220;-66
2022/05/13 01:05:36;;;;;;;17.90;9.07;;;;;16.90;96584.00;;;;8365159;28;20559;-66
2022/05/13 01:10:10;;;;;;;19.15;9.40;;;;;16.90;96595.00;;;;8364490;28;20308;-66
2022/05/13 01:14:20;;;;;;;13.73;8.95;;;;;16.90;96593.00;;;;8364449;28;20228;-66
2022/05/13 01:18:50;;;;;;;19.13;9.65;;;;;16.90;96593.00;;;;8364721;28;20315;-65
2022/05/13 01:23:27;;;;;;;15.32;8.77;;;;;16.90;96583.00;;;;8363910;28;20247;-65
2022/05/13 01:27:32;;;;;;;16.35;9.07;;;;;17.00;96582.00;;;;8364226;28;20620;-65
2022/05/13 01:32:06;;;;;;;15.82;9.05;;;;;17.00;96588.00;;;;8363867;28;20260;-65
2022/05/13 01:36:12;;;;;;;14.50;8.90;;;;;17.00;96586.00;;;;8355579;28;20590;-66
2022/05/13 01:40:46;;;;;;;20.27;9.38;;;;;17.00;96577.00;;;;8364243;28;20320;-64
2022/05/13 01:44:51;;;;;;;15.40;9.32;;;;;16.90;96588.00;;;;8362863;28;20304;-65
2022/05/13 01:48:54;;;;;;;21.33;10.07;;;;;16.80;96575.00;;;;8363211;28;20217;-66
2022/05/13 01:52:57;;;;;;;16.13;10.57;;;;;16.80;96563.00;;;;8363177;28;20247;-66
2022/05/13 01:57:34;;;;;;;16.75;9.60;;;;;16.80;96571.00;;;;8362787;28;20316;-68
2022/05/13 02:01:39;;;;;;;13.60;9.63;;;;;16.80;96573.00;;;;8362038;28;20308;-68
2022/05/13 02:05:42;;;;;;;17.23;10.25;;;;;16.80;96563.00;;;;8362855;28;20319;-68
2022/05/13 02:10:16;;;;;;;17.02;10.95;;;;;16.70;96572.00;;;;8362741;28;20314;-69
2022/05/13 02:14:20;;;;;;;17.95;10.68;;;;;16.80;96578.00;;;;8362716;28;20227;-69
2022/05/13 02:18:57;;;;;;;27.73;11.15;;;;;16.70;96560.00;;;;8361921;28;20315;-70
2022/05/13 02:23:01;;;;;;;23.05;11.90;;;;;16.70;96556.00;;;;8363217;28;20303;-67
2022/05/13 02:27:05;;;;;;;23.00;11.00;;;;;16.60;96576.00;;;;8362331;28;20216;-69
2022/05/13 02:31:09;;;;;;;18.92;11.40;;;;;16.60;96563.00;;;;8362578;28;20235;-68
2022/05/13 02:35:43;;;;;;;19.15;11.38;;;;;16.60;96555.00;;;;8361524;28;20304;-68
2022/05/13 02:39:48;;;;;;;20.50;11.52;;;;;16.60;96549.00;;;;8362095;28;20213;-68
2022/05/13 02:43:55;;;;;;;17.88;11.40;;;;;16.60;96553.00;;;;8361665;28;20288;-67
2022/05/13 02:47:58;;;;;;;23.13;12.70;;;;;16.60;96555.00;;;;8361873;28;20224;-68
2022/05/13 02:52:35;;;;;;;30.38;13.07;;;;;16.60;96544.00;;;;8360232;28;20217;-69
2022/05/13 02:57:11;;;;;;;23.67;12.98;;;;;16.60;96555.00;;;;8361530;28;20224;-68
2022/05/13 03:01:18;;;;;;;22.80;12.90;;;;;16.60;96552.00;;;;8396205;22;21582;-70
2022/05/13 03:05:21;;;;;;;22.23;12.23;;;;;16.60;96552.00;;;;8431804;28;20711;-69
2022/05/13 03:09:24;;;;;;;22.60;11.85;;;;;16.60;96552.00;;;;8435266;28;20233;-69
2022/05/13 03:13:29;;;;;;;21.55;11.70;;;;;16.60;96559.00;;;;8437338;28;20321;-69
2022/05/13 03:17:32;;;;;;;23.17;12.45;;;;;16.60;96561.00;;;;8435254;28;20325;-68
2022/05/13 03:21:35;;;;;;;28.63;13.25;;;;;16.60;96562.00;;;;8437307;28;20340;-67
2022/05/13 03:25:38;;;;;;;22.58;12.30;;;;;16.50;96551.00;;;;8438834;28;20235;-67
2022/05/13 03:29:43;;;;;;;27.27;12.45;;;;;16.50;96550.00;;;;8432287;28;20229;-67
2022/05/13 03:33:47;;;;;;;26.85;12.73;;;;;16.50;96549.00;;;;8432511;28;20248;-67
2022/05/13 03:37:50;;;;;;;27.42;13.07;;;;;16.50;96555.00;;;;8443176;28;20226;-68
2022/05/13 03:41:54;;;;;;;25.33;12.88;;;;;16.50;96543.00;;;;8435042;27;20719;-67
2022/05/13 03:45:59;;;;;;;30.85;12.70;;;;;16.50;96545.00;;;;8441274;28;20305;-67
2022/05/13 03:50:03;;;;;;;20.75;12.07;;;;;16.50;96539.00;;;;8444239;28;20576;-67
2022/05/13 03:54:06;;;;;;;24.17;13.13;;;;;16.50;96546.00;;;;8436982;28;20275;-67
2022/05/13 03:58:09;;;;;;;25.20;13.15;;;;;16.60;96539.00;;;;8439190;28;20211;-67
2022/05/13 04:02:14;;;;;;;27.17;13.57;;;;;16.60;96525.00;;;;8439998;28;20693;-67
2022/05/13 04:10:38;;;;;;;24.63;12.90;;;;;16.70;96532.00;;;;8441077;28;20223;-66
2022/05/13 04:19:05;;;;;;;30.27;13.52;;;;;16.80;96540.00;;;;8439610;28;20298;-67
2022/05/13 04:23:08;;;;;;;26.33;13.05;;;;;16.80;96539.00;;;;8445547;28;20233;-67
2022/05/13 04:27:11;;;;;;;29.30;14.52;;;;;16.80;96538.00;;;;8454032;27;20356;-68
2022/05/13 04:31:16;;;;;;;24.45;13.38;;;;;16.90;96544.00;;;;8448483;27;20697;-68
2022/05/13 04:35:21;;;;;;;31.02;15.13;;;;;16.90;96552.00;;;;8456525;27;20226;-68
2022/05/13 04:39:24;;;;;;;28.05;14.52;;;;;16.90;96556.00;;;;8455682;27;20230;-68
2022/05/13 04:43:33;;;;;;;36.75;15.18;;;;;16.90;96561.00;;;;8450980;27;20309;-67
2022/05/13 04:51:58;;;;;;;31.10;14.30;;;;;16.90;96584.00;;;;8445400;27;20219;-67
2022/05/13 04:56:03;;;;;;;30.33;14.38;;;;;16.90;96575.00;;;;8451505;27;20246;-67
2022/05/13 05:00:08;;;;;;;27.83;14.43;;;;;16.90;96566.00;;;;8450302;27;20222;-73
2022/05/13 05:04:12;;;;;;;23.38;13.07;;;;;16.90;96571.00;;;;8448505;27;20230;-71
2022/05/13 05:08:18;;;;;;;25.70;13.63;;;;;16.80;96569.00;;;;8427283;27;20228;-71
2022/05/13 05:12:21;;;;;;;29.35;13.38;;;;;16.80;96578.00;;;;8453615;27;20226;-73
2022/05/13 05:16:25;;;;;;;29.65;14.52;;;;;16.90;96588.00;;;;8442535;27;20222;-72
2022/05/13 05:20:29;;;;;;;28.65;14.65;;;;;17.00;96581.00;;;;8443461;27;20726;-73
2022/05/13 05:24:33;;;;;;;31.40;15.02;;;;;17.00;96578.00;;;;8450356;27;20687;-74
2022/05/13 05:28:38;;;;;;;33.17;15.45;;;;;17.00;96583.00;;;;8449213;27;20574;-75
2022/05/13 05:32:41;;;;;;;31.20;15.48;;;;;17.00;96593.00;;;;8451945;27;20227;-74
2022/05/13 05:36:45;;;;;;;37.33;15.27;;;;;16.90;96619.00;;;;8420088;27;20252;-74
2022/05/13 05:40:49;;;;;;;32.58;15.88;;;;;16.90;96604.00;;;;8455099;27;20230;-72
2022/05/13 05:44:52;;;;;;;26.77;13.75;;;;;16.90;96602.00;;;;8450520;27;20222;-69
2022/05/13 05:48:56;;;;;;;23.75;12.30;;;;;16.90;96611.00;;;;8448353;27;20321;-69
2022/05/13 05:53:01;;;;;;;21.92;11.35;;;;;16.80;96627.00;;;;8445350;27;20230;-68
2022/05/13 05:57:15;;;;;;;23.88;10.32;;;;;16.80;96616.00;;;;8454554;27;20234;-68
2022/05/13 06:01:18;;;;;;;16.90;9.82;;;;;16.70;96632.00;;;;8456154;27;20309;-67
2022/05/13 06:05:23;;;;;;;19.60;9.52;;;;;16.70;96617.00;;;;8452641;27;20333;-67
2022/05/13 06:09:26;;;;;;;18.60;9.50;;;;;16.70;96627.00;;;;8458804;27;20225;-70
2022/05/13 06:13:31;;;;;;;23.00;10.05;;;;;16.80;96627.00;;;;8454947;27;20671;-66
2022/05/13 06:17:34;;;;;;;23.75;10.20;;;;;16.80;96626.00;;;;8446460;27;20218;-66
2022/05/13 06:21:37;;;;;;;21.52;10.32;;;;;16.90;96626.00;;;;8451856;27;20223;-65
2022/05/13 06:25:40;;;;;;;22.98;11.07;;;;;17.00;96626.00;;;;8441906;27;20234;-65
2022/05/13 06:29:45;;;;;;;22.45;11.13;;;;;17.10;96624.00;;;;8451491;27;20236;-64
2022/05/13 06:33:49;;;;;;;18.90;10.73;;;;;17.30;96625.00;;;;8451060;27;20813;-65
2022/05/13 06:37:52;;;;;;;19.65;10.25;;;;;17.80;96635.00;;;;8451809;27;20229;-65
2022/05/13 06:41:55;;;;;;;20.90;10.07;;;;;18.00;96637.00;;;;8443167;27;20309;-66
2022/05/13 06:46:00;;;;;;;18.45;9.65;;;;;18.20;96622.00;;;;8448707;27;20321;-66
2022/05/13 06:50:05;;;;;;;23.40;10.95;;;;;18.50;96631.00;;;;8446562;27;20947;-72
2022/05/13 06:54:10;;;;;;;20.00;9.30;;;;;18.70;96631.00;;;;8446072;27;20222;-67
2022/05/13 06:58:14;;;;;;;15.90;8.93;;;;;18.90;96638.00;;;;8439593;27;20214;-67
2022/05/13 07:02:21;;;;;;;19.77;8.90;;;;;18.90;96652.00;;;;8443480;27;20223;-68
2022/05/13 07:06:25;;;;;;;16.90;8.93;;;;;18.90;96637.00;;;;8453687;27;20218;-68
2022/05/13 07:10:28;;;;;;;19.00;8.80;;;;;19.10;96633.00;;;;8447816;27;20254;-68
2022/05/13 07:14:34;;;;;;;13.98;8.20;;;;;19.50;96624.00;;;;8445837;27;20959;-68
2022/05/13 07:18:40;;;;;;;9.88;8.00;;;;;20.10;96624.00;;;;8445792;28;20678;-69
2022/05/13 07:22:44;;;;;;;11.13;7.13;;;;;21.10;96629.00;;;;8445626;28;20574;-70
2022/05/13 07:26:49;;;;;;;10.48;7.10;;;;;21.50;96609.00;;;;8447344;28;20260;-68
2022/05/13 07:30:52;;;;;;;8.10;5.85;;;;;21.90;96596.00;;;;8452719;28;20695;-68
2022/05/13 07:34:57;;;;;;;9.75;5.82;;;;;21.80;96592.00;;;;8444576;28;20234;-69
2022/05/13 07:43:20;;;;;;;9.40;5.63;;;;;22.10;96618.00;;;;8440849;28;20314;-69
2022/05/13 07:47:24;;;;;;;9.57;5.20;;;;;22.10;96626.00;;;;8439907;28;20310;-68
2022/05/13 07:51:28;;;;;;;9.60;4.90;;;;;22.50;96627.00;;;;8444997;28;20277;-69
2022/05/13 07:55:32;;;;;;;9.80;4.80;;;;;23.10;96644.00;;;;8460633;28;20324;-69
2022/05/13 08:00:24;;;;;;;8.00;4.53;;;;;23.20;96627.00;;;;8456044;27;20270;-70
2022/05/13 08:04:00;;;;;;;8.27;4.55;;;;;22.80;96637.00;;;;8449856;27;20226;-70
2022/05/13 08:08:07;;;;;;;9.50;4.65;;;;;22.90;96628.00;;;;8449144;27;20223;-71
2022/05/13 08:12:11;;;;;;;10.70;4.13;;;;;23.30;96637.00;;;;8455350;27;20218;-69
2022/05/13 08:16:17;;;;;;;10.82;4.45;;;;;23.50;96644.00;;;;8452873;27;20325;-70
2022/05/13 08:20:21;;;;;;;6.57;4.07;;;;;23.80;96648.00;;;;8450663;27;20218;-72
2022/05/13 08:24:25;;;;;;;5.63;3.67;;;;;23.60;96651.00;;;;8453856;27;20723;-69
2022/05/13 08:28:29;;;;;;;7.88;3.78;;;;;23.50;96649.00;;;;8456624;27;20317;-69
2022/05/13 08:32:32;;;;;;;8.10;4.00;;;;;23.40;96652.00;;;;8454659;27;20230;-69
2022/05/13 08:36:35;;;;;;;7.88;3.60;;;;;23.50;96643.00;;;;8441315;27;20281;-69
2022/05/13 08:41:04;;;;;;;6.22;3.40;;;;;23.70;96636.00;;;;8449077;27;20321;-71
2022/05/13 08:45:10;;;;;;;11.48;3.42;;;;;24.10;96640.00;;;;8429527;28;20214;-74
2022/05/13 08:49:24;;;;;;;8.30;2.83;;;;;24.40;96634.00;;;;8449224;27;20219;-77
2022/05/13 08:53:32;;;;;;;5.85;2.90;;;;;24.80;96650.00;;;;8456693;27;20230;-73
2022/05/13 08:57:40;;;;;;;6.18;3.33;;;;;25.20;96641.00;;;;8454023;27;20234;-74
2022/05/13 09:01:48;;;;;;;5.15;3.03;;;;;24.80;96646.00;;;;8453496;27;20224;-79
2022/05/13 09:05:56;;;;;;;12.02;3.20;;;;;24.40;96641.00;;;;8449732;27;20250;-78
2022/05/13 09:10:01;;;;;;;7.78;2.85;;;;;23.40;96644.00;;;;8451680;27;20256;-76
2022/05/13 09:14:13;;;;;;;5.43;2.70;;;;;23.40;96635.00;;;;8447408;27;20218;-77
2022/05/13 09:18:24;;;;;;;10.05;2.53;;;;;24.00;96647.00;;;;8444663;27;20250;-77
2022/05/13 09:22:37;;;;;;;5.05;2.55;;;;;24.60;96627.00;;;;8445951;27;20761;-77
2022/05/13 09:26:42;;;;;;;4.25;2.83;;;;;25.40;96634.00;;;;8445141;27;20225;-75
2022/05/13 09:30:50;;;;;;;6.97;2.45;;;;;26.10;96640.00;;;;8450943;27;20219;-78
2022/05/13 09:35:05;;;;;;;5.63;2.50;;;;;26.70;96632.00;;;;8446007;27;20226;-79
2022/05/13 09:39:21;;;;;;;4.40;2.72;;;;;26.40;96641.00;;;;8450170;27;20250;-78
2022/05/13 09:43:34;;;;;;;8.50;2.58;;;;;25.60;96640.00;;;;8445835;27;20222;-76
2022/05/13 09:47:39;;;;;;;4.45;2.35;;;;;26.00;96630.00;;;;8449326;27;20306;-77
2022/05/13 09:51:54;;;;;;;5.68;2.60;;;;;25.80;96627.00;;;;8447388;27;20268;-74
2022/05/13 09:56:01;;;;;;;3.55;2.72;;;;;25.60;96630.00;;;;8441726;27;20222;-76
2022/05/13 10:00:07;;;;;;;11.32;2.63;;;;;25.30;96617.00;;;;8441011;27;20921;-76
2022/05/13 10:04:20;;;;;;;5.60;2.80;;;;;25.40;96612.00;;;;8449435;27;20753;-75
2022/05/13 10:08:27;;;;;;;7.68;3.13;;;;;25.70;96607.00;;;;8447984;27;20647;-76
2022/05/13 10:17:02;;;;;;;7.03;3.00;;;;;26.90;96596.00;;;;8449544;27;20279;-78
2022/05/13 10:21:10;;;;;;;7.30;3.38;;;;;26.40;96597.00;;;;8449343;27;20258;-78
2022/05/13 10:25:17;;;;;;;7.57;3.08;;;;;26.70;96607.00;;;;8443277;27;20242;-80
2022/05/13 10:29:27;;;;;;;6.10;2.97;;;;;26.60;96597.00;;;;8450283;27;20226;-80
2022/05/13 10:33:36;;;;;;;6.95;2.80;;;;;27.10;96596.00;;;;8456645;27;20304;-80
2022/05/13 10:37:54;;;;;;;10.23;3.40;;;;;26.80;96589.00;;;;8445327;27;20572;-77
2022/05/13 10:41:59;;;;;;;7.45;3.40;;;;;26.50;96586.00;;;;8442508;27;23394;-79
2022/05/13 10:46:14;;;;;;;8.48;3.28;;;;;27.50;96583.00;;;;8443571;27;20313;-77
2022/05/13 10:50:19;;;;;;;9.73;3.40;;;;;27.80;96588.00;;;;8451389;27;20312;-77
2022/05/13 10:54:45;;;;;;;5.20;3.10;;;;;27.70;96598.00;;;;8447321;27;20237;-78
2022/05/13 10:59:06;;;;;;;5.68;3.15;;;;;26.90;96602.00;;;;8443090;27;20233;-79
2022/05/13 11:03:38;;;;;;;5.15;3.25;;;;;26.00;96610.00;;;;8445775;27;20301;-79
2022/05/13 11:07:48;;;;;;;8.32;3.35;;;;;25.80;96606.00;;;;8462951;27;20300;-80
2022/05/13 11:11:55;;;;;;;7.15;3.60;;;;;25.30;96607.00;;;;8446429;27;20249;-78
2022/05/13 11:16:02;;;;;;;6.78;3.17;;;;;25.70;96608.00;;;;8442674;28;20238;-82
2022/05/13 11:20:14;;;;;;;6.03;3.22;;;;;27.10;96608.00;;;;8443884;28;20579;-81
2022/05/13 11:29:03;;;;;;;3.83;3.10;;;;;27.90;96608.00;;;;8443647;28;20835;-81
2022/05/13 11:33:20;;;;;;;4.82;3.08;;;;;27.30;96601.00;;;;8447146;28;20222;-80
2022/05/13 11:37:24;;;;;;;5.88;3.22;;;;;26.60;96613.00;;;;8463608;27;20236;-81
2022/05/13 11:41:37;;;;;;;5.22;2.80;;;;;27.00;96616.00;;;;8453863;27;20321;-81
2022/05/13 11:46:22;;;;;;;5.57;2.55;;;;;26.70;96614.00;;;;8457358;27;20611;-79
2022/05/13 11:50:27;;;;;;;5.03;2.97;;;;;26.00;96616.00;;;;8446135;27;20234;-82
2022/05/13 11:54:31;;;;;;;5.28;3.10;;;;;25.30;96611.00;;;;8454347;27;20973;-69
2022/05/13 11:58:50;;;;;;;5.47;2.65;;;;;25.00;96601.00;;;;8452731;27;20435;-68
2022/05/13 12:03:02;;;;;;;9.77;3.35;;;;;25.20;96607.00;;;;8450265;27;20579;-66
2022/05/13 12:07:26;;;;;;;6.82;3.00;;;;;25.20;96592.00;;;;8451022;27;20675;-66
2022/05/13 12:11:52;;;;;;;8.02;2.75;;;;;26.00;96598.00;;;;8450506;27;20547;-67
2022/05/13 12:16:10;;;;;;;7.57;2.90;;;;;26.70;96595.00;;;;8457940;27;20272;-67
2022/05/13 12:20:22;;;;;;;6.93;3.00;;;;;25.90;96591.00;;;;8450619;27;20280;-68
2022/05/13 12:24:26;;;;;;;3.65;2.47;;;;;25.90;96595.00;;;;8439901;27;20346;-66
2022/05/13 12:29:07;;;;;;;10.13;3.10;;;;;25.50;96588.00;;;;8458289;27;20222;-66
2022/05/13 12:33:36;;;;;;;5.95;2.85;;;;;25.20;96594.00;;;;8444255;27;20227;-67
2022/05/13 12:42:14;;;;;;;4.75;2.67;;;;;24.90;96584.00;;;;8439256;27;20567;-67
2022/05/13 12:46:20;;;;;;;4.75;2.88;;;;;25.00;96585.00;;;;8417142;27;20317;-66
2022/05/13 12:50:30;;;;;;;6.22;2.97;;;;;25.30;96580.00;;;;8400963;27;20227;-65
2022/05/13 12:54:39;;;;;;;4.05;2.53;;;;;25.30;96586.00;;;;8407118;27;20227;-65
2022/05/13 12:58:46;;;;;;;5.72;2.60;;;;;25.30;96585.00;;;;8397501;27;20228;-67
2022/05/13 13:02:52;;;;;;;3.80;2.30;;;;;25.40;96576.00;;;;8379760;28;20240;-65
2022/05/13 13:07:06;;;;;;;4.35;2.35;;;;;25.70;96582.00;;;;8366062;28;20258;-65
2022/05/13 13:11:22;;;;;;;3.97;2.45;;;;;26.10;96578.00;;;;8396522;28;20234;-65
2022/05/13 13:15:33;;;;;;;4.25;2.60;;;;;26.20;96576.00;;;;8407354;28;20664;-69
2022/05/13 13:19:37;;;;;;;8.73;2.30;;;;;26.40;96568.00;;;;8405123;28;20988;-66
2022/05/13 13:23:42;;;;;;;5.65;2.80;;;;;26.40;96573.00;;;;8405283;28;20322;-65
2022/05/13 13:27:46;;;;;;;5.13;2.60;;;;;26.60;96581.00;;;;8404364;28;20223;-68
2022/05/13 13:31:51;;;;;;;4.65;2.33;;;;;26.90;96575.00;;;;8404798;28;20980;-67
2022/05/13 13:36:06;;;;;;;8.95;2.92;;;;;26.80;96567.00;;;;8406321;28;20334;-67
2022/05/13 13:40:16;;;;;;;6.07;2.60;;;;;26.80;96576.00;;;;8399646;27;20314;-67
2022/05/13 13:44:19;;;;;;;9.23;2.33;;;;;26.50;96566.00;;;;8401483;27;20351;-69
2022/05/13 13:48:31;;;;;;;4.72;2.20;;;;;26.30;96572.00;;;;8392965;27;20226;-71
2022/05/13 13:52:36;;;;;;;4.38;2.33;;;;;26.10;96577.00;;;;8372951;28;20337;-70
2022/05/13 13:56:50;;;;;;;3.65;2.13;;;;;25.60;96575.00;;;;8367926;28;20358;-67
2022/05/13 14:00:54;;;;;;;5.00;2.60;;;;;25.60;96570.00;;;;8359087;28;20319;-67
2022/05/13 14:04:59;;;;;;;4.70;2.58;;;;;25.70;96565.00;;;;8380177;28;20303;-69
2022/05/13 14:09:03;;;;;;;5.88;2.50;;;;;25.60;96571.00;;;;8382917;28;20311;-66
2022/05/13 14:13:10;;;;;;;3.80;2.28;;;;;25.70;96569.00;;;;8382996;28;20302;-67
2022/05/13 14:17:14;;;;;;;4.05;2.13;;;;;26.20;96568.00;;;;8384224;28;20234;-67
2022/05/13 14:21:27;;;;;;;4.00;2.30;;;;;26.80;96566.00;;;;8383058;28;20256;-68
2022/05/13 14:25:35;;;;;;;4.15;2.38;;;;;26.90;96564.00;;;;8383696;28;20419;-67
2022/05/13 14:29:39;;;;;;;8.48;3.30;;;;;26.90;96580.00;;;;8386954;28;20224;-66
2022/05/13 14:33:48;;;;;;;5.55;2.25;;;;;27.50;96573.00;;;;8375593;28;20595;-69
2022/05/13 14:37:55;;;;;;;4.78;2.10;;;;;27.60;96566.00;;;;8378931;28;20564;-66
2022/05/13 14:42:01;;;;;;;4.97;2.45;;;;;27.70;96562.00;;;;8383938;28;20231;-66
2022/05/13 14:46:10;;;;;;;4.05;2.35;;;;;27.60;96564.00;;;;8381762;28;20782;-66
2022/05/13 14:50:30;;;;;;;66.78;31.95;;;;;27.60;96568.00;;;;8383913;28;20756;-67
2022/05/13 14:54:39;;;;;;;3.20;2.25;;;;;27.60;96565.00;;;;8386299;28;20327;-67
2022/05/13 14:58:52;;;;;;;3.78;2.25;;;;;27.70;96577.00;;;;8372998;28;20243;-68
2022/05/13 15:02:59;;;;;;;3.53;2.13;;;;;27.60;96561.00;;;;8379130;28;20258;-66
2022/05/13 15:07:17;;;;;;;5.65;2.60;;;;;27.50;96572.00;;;;8382109;28;20232;-66
2022/05/13 15:11:22;;;;;;;6.30;2.50;;;;;27.60;96575.00;;;;8378201;28;20237;-66
2022/05/13 15:15:27;;;;;;;5.85;2.20;;;;;27.40;96585.00;;;;8383438;28;20228;-68
2022/05/13 15:19:34;;;;;;;4.30;2.45;;;;;27.10;96577.00;;;;8383028;28;20347;-69
2022/05/13 15:23:38;;;;;;;4.05;2.30;;;;;27.30;96586.00;;;;8384469;28;20228;-67
2022/05/13 15:27:43;;;;;;;4.50;2.20;;;;;26.90;96596.00;;;;8389936;28;20306;-66
2022/05/13 15:31:46;;;;;;;7.47;2.10;;;;;26.70;96594.00;;;;8376602;28;21013;-66
2022/05/13 15:35:50;;;;;;;5.50;2.25;;;;;26.70;96586.00;;;;8382404;28;20663;-66
2022/05/13 15:39:53;;;;;;;3.60;1.92;;;;;26.80;96585.00;;;;8365287;28;20220;-67
2022/05/13 15:43:58;;;;;;;1.90;1.77;;;;;26.60;96588.00;;;;8380279;28;20250;-66
2022/05/13 15:48:04;;;;;;;5.68;2.30;;;;;26.70;96592.00;;;;8373000;28;20238;-67
2022/05/13 15:56:40;;;;;;;5.18;2.38;;;;;26.50;96586.00;;;;8373597;28;20314;-67
2022/05/13 16:00:46;;;;;;;6.28;2.17;;;;;26.40;96580.00;;;;8365541;28;20306;-66
2022/05/13 16:04:52;;;;;;;3.20;1.90;;;;;26.30;96590.00;;;;8367063;27;20265;-69
2022/05/13 16:08:56;;;;;;;4.78;1.80;;;;;26.70;96591.00;;;;8377382;28;20220;-68
2022/05/13 16:13:03;;;;;;;4.22;1.77;;;;;26.60;96599.00;;;;8377581;28;20220;-67
2022/05/13 16:17:17;;;;;;;8.52;1.90;;;;;26.60;96595.00;;;;8372360;28;20339;-66
2022/05/13 16:21:27;;;;;;;2.55;1.77;;;;;26.60;96597.00;;;;8371263;28;20929;-66
2022/05/13 16:25:30;;;;;;;2.33;1.58;;;;;26.50;96595.00;;;;8373144;28;20230;-68
2022/05/13 16:29:34;;;;;;;2.40;1.60;;;;;26.30;96601.00;;;;8376912;28;20265;-67
2022/05/13 16:33:46;;;;;;;3.45;1.67;;;;;26.20;96606.00;;;;8357031;28;20224;-67
2022/05/13 16:37:50;;;;;;;3.60;1.80;;;;;26.20;96611.00;;;;8344402;28;20213;-64
2022/05/13 16:41:55;;;;;;;4.15;1.70;;;;;26.20;96607.00;;;;8372759;28;20319;-66
2022/05/13 16:45:58;;;;;;;3.53;1.63;;;;;26.30;96605.00;;;;8372723;27;20251;-67
2022/05/13 16:50:04;;;;;;;1.52;1.40;;;;;26.30;96605.00;;;;8377826;28;20301;-65
2022/05/13 16:54:07;;;;;;;9.32;1.80;;;;;26.10;96611.00;;;;8364277;28;20706;-69
2022/05/13 16:58:10;;;;;;;5.25;1.80;;;;;26.20;96613.00;;;;8369749;28;20248;-66
2022/05/13 17:02:13;;;;;;;4.30;1.80;;;;;26.00;96617.00;;;;8371942;28;20256;-67
2022/05/13 17:06:18;;;;;;;3.38;1.65;;;;;25.70;96609.00;;;;8373260;28;20723;-65
2022/05/13 17:19:20;;;;;;;4.65;1.67;;;;;25.40;96615.00;;;;8374197;28;20318;-66
2022/05/13 17:23:25;;;;;;;4.45;1.73;;;;;25.20;96622.00;;;;8372707;28;20246;-66
2022/05/13 17:27:34;;;;;;;5.97;1.83;;;;;24.80;96621.00;;;;8381393;28;20588;-68
2022/05/13 17:31:38;;;;;;;2.08;1.60;;;;;24.70;96616.00;;;;8378612;28;20243;-66
2022/05/13 17:35:41;;;;;;;3.35;1.77;;;;;24.60;96618.00;;;;8375773;27;20568;-65
2022/05/13 17:39:47;;;;;;;7.07;2.10;;;;;24.40;96621.00;;;;8398339;27;20310;-68
2022/05/13 17:43:50;;;;;;;2.88;1.70;;;;;24.10;96621.00;;;;8366993;27;20232;-69
2022/05/13 17:47:53;;;;;;;4.28;1.88;;;;;23.80;96616.00;;;;8368885;28;20240;-66
2022/05/13 17:51:58;;;;;;;3.60;1.48;;;;;23.50;96629.00;;;;8373896;27;20228;-69
2022/05/13 17:56:03;;;;;;;2.38;1.80;;;;;23.20;96623.00;;;;8369927;28;20252;-65
2022/05/13 18:00:08;;;;;;;3.03;1.77;;;;;23.00;96633.00;;;;8370772;28;20229;-66
2022/05/13 18:04:12;;;;;;;6.63;2.05;;;;;22.60;96630.00;;;;8345729;28;20617;-65
2022/05/13 18:08:16;;;;;;;2.20;1.60;;;;;22.30;96629.00;;;;8363100;27;20303;-66
2022/05/13 18:12:20;;;;;;;5.57;1.90;;;;;22.10;96633.00;;;;8374713;28;20234;-67
2022/05/13 18:16:30;;;;;;;9.50;2.13;;;;;21.80;96636.00;;;;8373464;27;20212;-69
2022/05/13 18:20:37;;;;;;;4.55;2.03;;;;;21.50;96639.00;;;;8375833;28;20232;-67
2022/05/13 18:24:41;;;;;;;6.38;2.03;;;;;21.10;96642.00;;;;8375158;28;20601;-67
2022/05/13 18:28:45;;;;;;;3.15;1.70;;;;;20.70;96648.00;;;;8379256;28;20242;-68
2022/05/13 18:32:52;;;;;;;4.00;1.73;;;;;20.30;96643.00;;;;8374463;28;20312;-68
2022/05/13 18:36:56;;;;;;;3.38;2.13;;;;;19.80;96640.00;;;;8379018;28;20227;-67
2022/05/13 18:49:54;;;;;;;3.47;1.90;;;;;18.20;96660.00;;;;8375105;28;20987;-66
2022/05/13 18:53:58;;;;;;;7.10;1.83;;;;;17.80;96667.00;;;;8375595;28;20234;-66
2022/05/13 18:58:01;;;;;;;3.75;2.03;;;;;17.30;96663.00;;;;8376973;28;20780;-65
2022/05/13 19:02:07;;;;;;;3.50;1.80;;;;;17.00;96676.00;;;;8374894;28;20235;-65
2022/05/13 19:06:12;;;;;;;5.82;2.10;;;;;16.60;96689.00;;;;8370730;28;20228;-66
2022/05/13 19:10:15;;;;;;;5.25;2.22;;;;;16.40;96698.00;;;;8376672;28;20330;-65
2022/05/13 19:14:21;;;;;;;8.30;2.40;;;;;16.20;96711.00;;;;8374672;27;20251;-66
2022/05/13 19:18:29;;;;;;;5.35;2.40;;;;;15.90;96702.00;;;;8372783;28;20743;-68
2022/05/13 19:22:32;;;;;;;5.97;2.40;;;;;15.70;96704.00;;;;8367436;28;20237;-66
2022/05/13 19:26:41;;;;;;;5.47;2.55;;;;;15.50;96701.00;;;;8376595;28;20259;-65
2022/05/13 19:30:52;;;;;;;5.05;2.47;;;;;15.30;96716.00;;;;8377325;28;20277;-66
2022/05/13 19:34:58;;;;;;;3.22;2.20;;;;;15.10;96715.00;;;;8376538;28;20226;-64
2022/05/13 19:39:03;;;;;;;5.43;2.40;;;;;15.00;96724.00;;;;8369653;28;21790;-65
2022/05/13 19:43:07;;;;;;;6.55;2.45;;;;;14.80;96727.00;;;;8376187;28;20301;-66
2022/05/13 19:47:11;;;;;;;6.28;2.63;;;;;14.70;96724.00;;;;8373130;28;20296;-65
2022/05/13 19:51:17;;;;;;;7.40;2.35;;;;;14.60;96727.00;;;;8372387;28;20245;-64
2022/05/13 19:55:21;;;;;;;2.42;2.22;;;;;14.50;96732.00;;;;8373460;28;20223;-64
2022/05/13 19:59:25;;;;;;;7.05;2.42;;;;;14.30;96739.00;;;;8370660;28;20230;-64
2022/05/13 20:03:39;;;;;;;5.30;2.17;;;;;14.10;96735.00;;;;8362909;28;20231;-64
2022/05/13 20:12:11;;;;;;;8.85;2.85;;;;;13.70;96735.00;;;;8372643;28;20220;-64
2022/05/13 20:16:14;;;;;;;4.82;2.50;;;;;13.60;96746.00;;;;8378230;28;20635;-65
2022/05/13 20:24:45;;;;;;;8.93;2.70;;;;;13.40;96740.00;;;;8373449;28;20230;-65
2022/05/13 20:28:48;;;;;;;9.68;2.95;;;;;13.30;96743.00;;;;8370155;28;20615;-66
2022/05/13 20:32:52;;;;;;;11.13;2.83;;;;;13.20;96743.00;;;;8367838;27;20596;-65
2022/05/13 20:36:57;;;;;;;6.30;3.03;;;;;13.20;96749.00;;;;8380398;28;20320;-64
2022/05/13 20:41:01;;;;;;;6.40;3.05;;;;;13.20;96750.00;;;;8370164;28;20264;-63
2022/05/13 20:45:06;;;;;;;5.57;2.72;;;;;13.10;96751.00;;;;8377630;28;20317;-64
2022/05/13 20:49:12;;;;;;;6.70;2.53;;;;;12.90;96762.00;;;;8372391;28;20284;-64
2022/05/13 20:53:15;;;;;;;7.38;2.42;;;;;12.80;96761.00;;;;8367198;28;22591;-65
2022/05/13 20:57:20;;;;;;;2.60;2.13;;;;;12.60;96759.00;;;;8365654;28;20254;-65
2022/05/13 21:01:23;;;;;;;6.25;2.60;;;;;12.50;96757.00;;;;8355550;28;20237;-65
2022/05/13 21:05:38;;;;;;;8.45;2.88;;;;;12.50;96756.00;;;;8383292;28;20294;-68
2022/05/13 21:09:42;;;;;;;7.90;2.60;;;;;12.30;96772.00;;;;8350504;28;20250;-66
2022/05/13 21:13:46;;;;;;;4.53;2.83;;;;;12.30;96772.00;;;;8378931;27;20643;-66
2022/05/13 21:17:49;;;;;;;8.13;3.40;;;;;12.20;96771.00;;;;8381494;28;20222;-64
2022/05/13 21:21:52;;;;;;;4.65;2.60;;;;;12.00;96768.00;;;;8381691;28;20233;-63
2022/05/13 21:25:56;;;;;;;4.70;3.10;;;;;11.90;96772.00;;;;8382020;28;20596;-65
2022/05/13 21:30:00;;;;;;;9.07;3.30;;;;;11.90;96764.00;;;;8380769;27;20227;-65
2022/05/13 21:38:24;;;;;;;3.88;2.88;;;;;11.70;96770.00;;;;8378718;28;20224;-67
2022/05/13 21:42:27;;;;;;;5.32;3.00;;;;;11.60;96780.00;;;;8338769;28;20231;-65